Time;durP1;ratioP1;P1;durP2;ratioP2;P2;SDS_P1;SDS_P2;PMS_P1;PMS_P2;Temp;Humidity;BMP_temperature;BMP_pressure;BME280_temperature;BME280_humidity;BME280_pressure;Samples;Min_cycle;Max_cycle;Signal;HPM_P1;HPM_P2
2022/09/18 00:00:47;;;;;;;0.00;0.00;;;12.20;99.90;;;;;;5028134;28;20067;-72
2022/09/18 00:03:14;;;;;;;0.17;0.17;;;12.20;99.90;;;;;;5029749;28;20702;-72
2022/09/18 00:05:40;;;;;;;0.10;0.10;;;12.30;99.90;;;;;;5030003;28;20076;-72
2022/09/18 00:08:07;;;;;;;0.10;0.10;;;12.40;99.90;;;;;;5036483;28;20125;-73
2022/09/18 00:10:38;;;;;;;0.10;0.10;;;12.50;99.90;;;;;;5022142;28;20059;-72
2022/09/18 00:13:03;;;;;;;0.03;0.03;;;12.50;99.90;;;;;;5042238;28;20131;-72
2022/09/18 00:15:29;;;;;;;0.10;0.10;;;12.40;99.90;;;;;;5050052;28;20144;-73
2022/09/18 00:17:54;;;;;;;0.00;0.00;;;12.40;99.90;;;;;;5036088;28;20042;-72
2022/09/18 00:20:20;;;;;;;0.52;0.52;;;12.40;99.90;;;;;;5049402;28;20045;-72
2022/09/18 00:22:46;;;;;;;0.10;0.10;;;12.50;99.90;;;;;;5050626;28;20094;-73
2022/09/18 00:25:12;;;;;;;0.10;0.10;;;12.50;99.90;;;;;;5047331;28;20045;-72
2022/09/18 00:27:37;;;;;;;0.15;0.15;;;12.50;99.90;;;;;;5047380;28;20051;-73
2022/09/18 00:30:03;;;;;;;0.52;0.52;;;12.50;99.90;;;;;;5048743;28;20045;-73
2022/09/18 00:32:29;;;;;;;0.10;0.10;;;12.50;99.90;;;;;;5023343;28;20077;-73
2022/09/18 00:34:55;;;;;;;0.10;0.10;;;12.50;99.90;;;;;;5029839;28;20046;-72
2022/09/18 00:37:20;;;;;;;0.30;0.30;;;12.50;99.90;;;;;;5030034;28;20045;-72
2022/09/18 00:39:46;;;;;;;0.10;0.10;;;12.50;99.90;;;;;;5035308;28;20041;-72
2022/09/18 00:42:12;;;;;;;0.00;0.00;;;12.50;99.90;;;;;;5028862;28;20088;-73
2022/09/18 00:44:44;;;;;;;0.00;0.00;;;12.50;99.90;;;;;;5030385;28;20045;-72
2022/09/18 00:47:10;;;;;;;0.10;0.10;;;12.50;99.90;;;;;;5028252;28;20393;-72
2022/09/18 00:49:38;;;;;;;0.20;0.20;;;12.50;99.90;;;;;;5030798;28;20048;-72
2022/09/18 00:52:05;;;;;;;0.00;0.00;;;12.50;99.90;;;;;;5049437;28;20119;-73
2022/09/18 00:54:38;;;;;;;0.32;0.32;;;12.50;99.90;;;;;;5050341;28;20052;-73
2022/09/18 00:57:09;;;;;;;0.10;0.10;;;12.50;99.90;;;;;;5041256;28;20045;-73
2022/09/18 00:59:36;;;;;;;0.10;0.10;;;12.50;99.90;;;;;;5041369;28;20045;-72
2022/09/18 01:02:03;;;;;;;0.05;0.05;;;12.50;99.90;;;;;;5024653;28;20104;-73
2022/09/18 01:04:29;;;;;;;0.10;0.10;;;12.50;99.90;;;;;;5035424;28;20041;-72
2022/09/18 01:07:04;;;;;;;0.30;0.30;;;12.50;99.90;;;;;;5047338;28;20045;-72
2022/09/18 01:09:59;;;;;;;0.00;0.00;;;12.50;99.90;;;;;;5049563;28;20070;-73
2022/09/18 01:12:53;;;;;;;0.00;0.00;;;12.50;99.90;;;;;;5045539;28;20041;-72
2022/09/18 01:15:27;;;;;;;0.00;0.00;;;12.50;99.90;;;;;;5009840;28;20058;-72
2022/09/18 01:18:03;;;;;;;0.10;0.10;;;12.40;99.90;;;;;;5033049;28;20060;-72
2022/09/18 01:21:06;;;;;;;0.00;0.00;;;12.50;99.90;;;;;;5029350;28;20052;-73
2022/09/18 01:24:02;;;;;;;0.10;0.10;;;12.50;99.90;;;;;;5023357;28;20045;-72
2022/09/18 01:26:49;;;;;;;0.10;0.10;;;12.40;99.90;;;;;;5028894;28;20117;-72
2022/09/18 01:29:45;;;;;;;0.10;0.10;;;12.50;99.90;;;;;;5050161;28;20136;-73
2022/09/18 01:32:24;;;;;;;0.57;0.57;;;12.50;99.90;;;;;;5045717;28;20077;-73
2022/09/18 01:35:35;;;;;;;0.10;0.10;;;12.50;99.90;;;;;;5039828;28;20056;-72
2022/09/18 01:38:19;;;;;;;0.10;0.10;;;12.50;99.90;;;;;;5029938;28;20061;-72
2022/09/18 01:40:53;;;;;;;0.10;0.10;;;12.50;99.90;;;;;;5032551;28;20058;-72
2022/09/18 01:43:20;;;;;;;0.10;0.10;;;12.50;99.90;;;;;;5032912;28;20052;-72
2022/09/18 01:45:49;;;;;;;0.10;0.10;;;12.50;99.90;;;;;;5030642;28;20049;-72
2022/09/18 01:48:28;;;;;;;0.20;0.20;;;12.50;99.90;;;;;;5032609;28;20041;-73
2022/09/18 01:50:59;;;;;;;0.10;0.10;;;12.50;99.90;;;;;;5032100;28;20061;-73
2022/09/18 01:53:33;;;;;;;0.10;0.10;;;12.50;99.90;;;;;;5031568;28;20087;-72
2022/09/18 01:56:06;;;;;;;0.00;0.00;;;12.40;99.90;;;;;;5049622;28;20049;-73
2022/09/18 01:58:33;;;;;;;0.10;0.10;;;12.40;99.90;;;;;;5052076;28;20045;-72
2022/09/18 02:01:04;;;;;;;0.05;0.05;;;12.40;99.90;;;;;;5052675;28;20056;-73
2022/09/18 02:03:36;;;;;;;0.10;0.10;;;12.40;99.90;;;;;;5050566;28;20404;-72
2022/09/18 02:06:09;;;;;;;0.00;0.00;;;12.30;99.90;;;;;;5036559;28;20133;-72
2022/09/18 02:08:52;;;;;;;0.08;0.08;;;12.30;99.90;;;;;;5035534;28;20033;-71
2022/09/18 02:11:19;;;;;;;0.10;0.10;;;12.20;99.90;;;;;;5051730;28;20053;-72
2022/09/18 02:13:52;;;;;;;0.00;0.00;;;12.30;99.90;;;;;;5052178;28;20610;-72
2022/09/18 02:16:25;;;;;;;0.10;0.10;;;12.20;99.90;;;;;;5050431;28;20122;-71
2022/09/18 02:18:54;;;;;;;0.10;0.10;;;12.30;99.90;;;;;;5050078;28;20047;-72
2022/09/18 02:21:26;;;;;;;0.25;0.25;;;12.30;99.90;;;;;;5049492;28;20053;-72
2022/09/18 02:24:03;;;;;;;0.17;0.17;;;12.40;99.90;;;;;;5035404;28;20045;-72
2022/09/18 02:26:31;;;;;;;0.43;0.43;;;12.30;99.90;;;;;;5032731;28;20378;-72
2022/09/18 02:28:57;;;;;;;0.00;0.00;;;12.40;99.90;;;;;;5025760;28;20049;-72
2022/09/18 02:31:23;;;;;;;0.00;0.00;;;12.30;99.90;;;;;;5030733;28;20053;-72
2022/09/18 02:33:49;;;;;;;0.10;0.10;;;12.30;99.90;;;;;;5031931;28;20045;-72
2022/09/18 02:36:31;;;;;;;0.10;0.10;;;12.30;99.90;;;;;;5029620;28;20574;-72
2022/09/18 02:39:26;;;;;;;0.00;0.00;;;12.30;99.90;;;;;;5052547;28;20484;-72
2022/09/18 02:42:05;;;;;;;0.10;0.10;;;12.30;99.90;;;;;;5011596;28;20061;-72
2022/09/18 02:45:03;;;;;;;0.10;0.10;;;12.30;99.90;;;;;;5021184;28;20041;-72
2022/09/18 02:47:43;;;;;;;0.10;0.10;;;12.30;99.90;;;;;;5025161;28;20067;-72
2022/09/18 02:50:17;;;;;;;1.23;0.80;;;12.30;99.90;;;;;;5049881;28;20859;-73
2022/09/18 02:53:28;;;;;;;0.10;0.10;;;12.30;99.90;;;;;;5050549;28;20053;-72
2022/09/18 02:56:05;;;;;;;0.00;0.00;;;12.30;99.90;;;;;;5035820;28;20049;-73
2022/09/18 02:58:30;;;;;;;0.10;0.10;;;12.30;99.90;;;;;;5032018;28;20126;-72
2022/09/18 03:00:59;;;;;;;0.00;0.00;;;12.20;99.90;;;;;;5027396;28;20136;-72
2022/09/18 03:03:28;;;;;;;0.10;0.10;;;12.30;99.90;;;;;;5045583;28;20590;-73
2022/09/18 03:05:55;;;;;;;0.50;0.50;;;12.20;99.90;;;;;;5029878;28;20049;-73
2022/09/18 03:08:20;;;;;;;0.10;0.10;;;12.20;99.90;;;;;;5029964;28;20506;-72
2022/09/18 03:10:46;;;;;;;0.10;0.10;;;12.10;99.90;;;;;;5050858;28;20124;-73
2022/09/18 03:13:11;;;;;;;0.10;0.10;;;12.20;99.90;;;;;;5033014;28;20033;-73
2022/09/18 03:15:37;;;;;;;0.10;0.10;;;12.10;99.90;;;;;;5050389;28;20524;-72
2022/09/18 03:18:02;;;;;;;0.28;0.28;;;12.20;99.90;;;;;;5047891;28;20439;-72
2022/09/18 03:20:28;;;;;;;0.10;0.10;;;12.20;99.90;;;;;;5050577;28;20044;-72
2022/09/18 03:22:53;;;;;;;0.00;0.00;;;12.20;99.90;;;;;;5034932;28;20067;-72
2022/09/18 03:25:19;;;;;;;0.10;0.10;;;12.20;99.90;;;;;;5030194;28;20050;-72
2022/09/18 03:27:44;;;;;;;0.98;0.98;;;12.20;99.90;;;;;;5042069;28;20037;-72
2022/09/18 03:30:11;;;;;;;0.50;0.50;;;12.20;99.90;;;;;;5037856;28;20397;-72
2022/09/18 03:32:36;;;;;;;0.00;0.00;;;12.20;99.90;;;;;;5040930;28;20080;-73
2022/09/18 03:35:02;;;;;;;0.10;0.10;;;12.20;99.90;;;;;;5029842;28;20079;-73
2022/09/18 03:37:27;;;;;;;0.10;0.10;;;12.20;99.90;;;;;;5029916;28;20041;-72
2022/09/18 03:39:53;;;;;;;0.10;0.10;;;12.20;99.90;;;;;;5042257;28;20040;-72
2022/09/18 03:42:18;;;;;;;0.10;0.10;;;12.20;99.90;;;;;;5030446;28;20055;-72
2022/09/18 03:44:44;;;;;;;0.10;0.10;;;12.20;99.90;;;;;;5030620;28;20054;-72
2022/09/18 03:47:09;;;;;;;0.10;0.10;;;12.20;99.90;;;;;;5025741;28;20057;-72
2022/09/18 03:49:35;;;;;;;0.00;0.00;;;12.20;99.90;;;;;;5051105;28;20041;-72
2022/09/18 03:52:01;;;;;;;0.10;0.10;;;12.20;99.90;;;;;;5049792;28;20041;-73
2022/09/18 03:54:26;;;;;;;3.63;1.65;;;12.20;99.90;;;;;;5048967;28;20112;-72
2022/09/18 03:56:52;;;;;;;0.10;0.10;;;12.30;99.90;;;;;;5050376;28;20494;-72
2022/09/18 03:59:18;;;;;;;0.10;0.10;;;12.30;99.90;;;;;;5049231;28;20612;-72
2022/09/18 04:01:43;;;;;;;2.05;0.85;;;12.30;99.90;;;;;;5048785;28;20380;-71
2022/09/18 04:04:09;;;;;;;0.10;0.10;;;12.20;99.90;;;;;;5028955;28;20053;-71
2022/09/18 04:06:34;;;;;;;0.10;0.10;;;12.20;99.90;;;;;;5030286;28;20046;-71
2022/09/18 04:09:00;;;;;;;0.10;0.10;;;12.10;99.90;;;;;;5031160;28;20038;-71
2022/09/18 04:11:26;;;;;;;0.00;0.00;;;12.00;99.90;;;;;;5045160;28;20051;-71
2022/09/18 04:13:51;;;;;;;0.10;0.10;;;12.00;99.90;;;;;;5048433;28;20033;-71
2022/09/18 04:16:17;;;;;;;0.10;0.10;;;11.90;99.90;;;;;;5028845;28;20160;-71
2022/09/18 04:18:42;;;;;;;0.10;0.10;;;11.90;99.90;;;;;;5030807;28;20042;-71
2022/09/18 04:21:08;;;;;;;0.10;0.10;;;11.90;99.90;;;;;;5029574;28;20124;-71
2022/09/18 04:23:34;;;;;;;0.10;0.10;;;11.90;99.90;;;;;;5023366;28;20132;-71
2022/09/18 04:26:02;;;;;;;0.10;0.10;;;11.80;99.90;;;;;;5049593;28;20037;-71
2022/09/18 04:28:28;;;;;;;0.00;0.00;;;11.80;99.90;;;;;;5050113;28;20041;-71
2022/09/18 04:30:53;;;;;;;0.10;0.10;;;11.80;99.90;;;;;;5045724;28;20052;-71
2022/09/18 04:33:19;;;;;;;0.52;0.52;;;11.80;99.90;;;;;;5031716;28;20064;-71
2022/09/18 04:35:44;;;;;;;0.00;0.00;;;11.70;99.90;;;;;;5046595;28;20084;-71
2022/09/18 04:38:10;;;;;;;0.47;0.40;;;11.70;99.90;;;;;;5048492;28;20048;-71
2022/09/18 04:40:35;;;;;;;0.00;0.00;;;11.70;99.90;;;;;;5038555;28;20065;-71
2022/09/18 04:43:01;;;;;;;0.20;0.20;;;11.80;99.90;;;;;;5028497;28;20052;-71
2022/09/18 04:45:26;;;;;;;0.00;0.00;;;11.80;99.90;;;;;;5029838;28;20099;-71
2022/09/18 04:47:52;;;;;;;0.10;0.10;;;11.80;99.90;;;;;;5029762;28;20041;-72
2022/09/18 04:50:17;;;;;;;0.10;0.10;;;11.90;99.90;;;;;;5035459;28;20128;-72
2022/09/18 04:52:43;;;;;;;1.17;0.52;;;11.90;99.90;;;;;;5054113;28;20507;-72
2022/09/18 04:55:09;;;;;;;0.57;0.57;;;11.90;99.90;;;;;;5052982;28;20037;-72
2022/09/18 04:57:34;;;;;;;0.10;0.10;;;11.90;99.90;;;;;;5041407;28;20056;-72
2022/09/18 05:00:00;;;;;;;0.10;0.10;;;11.90;99.90;;;;;;5032155;28;20052;-72
2022/09/18 05:02:26;;;;;;;30.67;0.80;;;11.90;99.90;;;;;;5029535;28;20060;-72
2022/09/18 05:04:51;;;;;;;0.00;0.00;;;11.90;99.90;;;;;;5041426;28;20040;-72
2022/09/18 05:07:17;;;;;;;0.00;0.00;;;11.90;99.90;;;;;;5053365;28;20139;-72
2022/09/18 05:09:42;;;;;;;0.00;0.00;;;11.90;99.90;;;;;;5052246;28;20056;-72
2022/09/18 05:12:08;;;;;;;0.00;0.00;;;11.90;99.90;;;;;;5051082;28;20041;-71
2022/09/18 05:14:34;;;;;;;0.00;0.00;;;11.90;99.90;;;;;;5045041;28;20091;-71
2022/09/18 05:17:00;;;;;;;0.05;0.05;;;11.90;99.90;;;;;;5053003;28;20468;-71
2022/09/18 05:19:26;;;;;;;0.03;0.03;;;11.90;99.90;;;;;;5053431;28;20041;-71
2022/09/18 05:21:52;;;;;;;0.10;0.10;;;11.90;99.90;;;;;;5034712;28;20056;-70
2022/09/18 05:24:18;;;;;;;0.10;0.10;;;11.90;99.90;;;;;;5052361;28;20268;-70
2022/09/18 05:26:44;;;;;;;0.20;0.20;;;11.90;99.90;;;;;;5053654;28;20041;-71
2022/09/18 05:29:10;;;;;;;0.63;0.63;;;11.90;99.90;;;;;;5051056;28;20404;-71
2022/09/18 05:31:35;;;;;;;0.10;0.10;;;11.90;99.90;;;;;;5049369;28;20041;-71
2022/09/18 05:34:01;;;;;;;0.10;0.10;;;11.90;99.90;;;;;;5032955;28;20092;-71
2022/09/18 05:36:26;;;;;;;0.00;0.00;;;11.80;99.90;;;;;;5030390;28;20155;-71
2022/09/18 05:38:52;;;;;;;0.10;0.10;;;12.00;99.90;;;;;;5034126;28;20049;-71
2022/09/18 05:41:18;;;;;;;0.25;0.25;;;12.00;99.90;;;;;;5036513;28;20254;-72
2022/09/18 05:43:44;;;;;;;0.10;0.10;;;12.00;99.90;;;;;;5032666;28;20048;-71
2022/09/18 05:46:10;;;;;;;0.10;0.10;;;11.90;99.90;;;;;;5031525;28;20063;-71
2022/09/18 05:48:35;;;;;;;0.10;0.10;;;11.90;99.90;;;;;;5033311;28;20029;-71
2022/09/18 05:51:01;;;;;;;0.10;0.10;;;11.90;99.90;;;;;;5050783;28;20052;-71
2022/09/18 05:53:26;;;;;;;0.63;0.63;;;11.90;99.90;;;;;;5051614;28;20072;-72
2022/09/18 05:55:52;;;;;;;0.10;0.10;;;11.90;99.90;;;;;;5053208;28;20451;-72
2022/09/18 05:58:18;;;;;;;0.10;0.10;;;11.90;99.90;;;;;;5049187;28;20400;-72
2022/09/18 06:00:45;;;;;;;0.00;0.00;;;11.90;99.90;;;;;;5048771;28;20484;-72
2022/09/18 06:03:13;;;;;;;0.00;0.00;;;11.80;99.90;;;;;;5027065;28;20045;-71
2022/09/18 06:05:40;;;;;;;0.10;0.10;;;11.80;99.90;;;;;;5040309;28;20037;-71
2022/09/18 06:08:08;;;;;;;0.30;0.30;;;11.80;99.90;;;;;;5050192;28;20044;-71
2022/09/18 06:10:38;;;;;;;0.00;0.00;;;11.80;99.90;;;;;;5052403;28;20512;-71
2022/09/18 06:13:06;;;;;;;0.10;0.10;;;11.80;99.90;;;;;;5051851;28;20040;-71
2022/09/18 06:15:33;;;;;;;5.28;1.75;;;11.80;99.90;;;;;;5052655;28;20041;-71
2022/09/18 06:17:59;;;;;;;0.10;0.10;;;11.80;99.90;;;;;;5032337;28;20044;-71
2022/09/18 06:20:24;;;;;;;0.05;0.05;;;11.80;99.90;;;;;;5047913;28;20529;-71
2022/09/18 06:22:50;;;;;;;0.03;0.03;;;11.90;99.90;;;;;;5027953;28;20045;-71
2022/09/18 06:25:18;;;;;;;0.10;0.10;;;11.90;99.90;;;;;;5052010;28;20094;-70
2022/09/18 06:27:44;;;;;;;0.00;0.00;;;11.90;99.90;;;;;;5050840;28;20075;-71
2022/09/18 06:30:10;;;;;;;0.00;0.00;;;11.90;99.90;;;;;;5052024;28;20481;-70
2022/09/18 06:32:35;;;;;;;0.10;0.10;;;11.90;99.90;;;;;;5039715;28;20107;-70
2022/09/18 06:35:01;;;;;;;0.00;0.00;;;11.80;99.90;;;;;;5032341;28;20042;-70
2022/09/18 06:37:27;;;;;;;0.10;0.10;;;11.80;99.90;;;;;;5030516;28;20120;-71
2022/09/18 06:39:52;;;;;;;0.05;0.05;;;11.80;99.90;;;;;;5031852;28;20037;-71
2022/09/18 06:42:18;;;;;;;0.10;0.10;;;11.80;99.90;;;;;;5030211;28;20385;-71
2022/09/18 06:44:43;;;;;;;0.10;0.10;;;11.80;99.90;;;;;;5032598;28;20049;-72
2022/09/18 06:47:09;;;;;;;0.00;0.00;;;11.80;99.90;;;;;;5031476;28;20108;-72
2022/09/18 06:49:34;;;;;;;0.73;0.73;;;11.80;99.90;;;;;;5038104;28;20401;-72
2022/09/18 06:52:00;;;;;;;0.00;0.00;;;11.80;99.90;;;;;;5052120;28;20098;-71
2022/09/18 06:54:26;;;;;;;0.10;0.10;;;11.80;99.90;;;;;;5051543;28;20052;-71
2022/09/18 06:56:51;;;;;;;0.00;0.00;;;11.70;99.90;;;;;;5033591;28;20077;-71
2022/09/18 06:59:17;;;;;;;0.00;0.00;;;11.80;99.90;;;;;;5051584;28;20455;-72
2022/09/18 07:01:42;;;;;;;0.10;0.10;;;11.70;99.90;;;;;;5051486;28;20049;-71
2022/09/18 07:04:08;;;;;;;0.00;0.00;;;11.70;99.90;;;;;;5047182;28;20481;-71
2022/09/18 07:06:34;;;;;;;0.10;0.10;;;11.70;99.90;;;;;;5051734;28;20080;-71
2022/09/18 07:08:59;;;;;;;0.05;0.05;;;11.60;99.90;;;;;;5038768;28;20040;-71
2022/09/18 07:11:25;;;;;;;0.10;0.10;;;11.70;99.90;;;;;;5043209;28;20104;-71
2022/09/18 07:13:52;;;;;;;0.10;0.10;;;11.70;99.90;;;;;;5041263;28;20056;-71
2022/09/18 07:16:17;;;;;;;0.10;0.10;;;11.60;99.90;;;;;;5049636;28;20057;-71
2022/09/18 07:18:43;;;;;;;0.10;0.10;;;11.60;99.90;;;;;;5040736;28;20053;-71
2022/09/18 07:21:09;;;;;;;0.10;0.10;;;11.60;99.90;;;;;;5031259;28;20038;-71
2022/09/18 07:23:34;;;;;;;0.20;0.20;;;11.60;99.90;;;;;;5030505;28;20060;-71
2022/09/18 07:26:02;;;;;;;0.10;0.10;;;11.70;99.90;;;;;;5031403;28;20124;-71
2022/09/18 07:28:27;;;;;;;0.00;0.00;;;11.70;99.90;;;;;;5040499;28;20087;-71
2022/09/18 07:30:53;;;;;;;0.10;0.10;;;11.70;99.90;;;;;;5050477;28;20045;-71
2022/09/18 07:33:19;;;;;;;0.10;0.10;;;11.70;99.90;;;;;;5034825;28;20053;-71
2022/09/18 07:35:45;;;;;;;0.10;0.10;;;11.70;99.90;;;;;;5029853;28;20037;-70
2022/09/18 07:38:10;;;;;;;0.10;0.10;;;11.70;99.90;;;;;;5041061;28;20447;-71
2022/09/18 07:40:36;;;;;;;0.20;0.20;;;11.80;99.90;;;;;;5041041;28;20519;-71
2022/09/18 07:43:05;;;;;;;0.00;0.00;;;11.80;99.90;;;;;;5030313;28;20890;-71
2022/09/18 07:45:31;;;;;;;0.00;0.00;;;11.80;99.90;;;;;;5027644;28;20131;-71
2022/09/18 07:48:00;;;;;;;0.10;0.10;;;11.80;99.90;;;;;;5029391;28;20046;-71
2022/09/18 07:50:26;;;;;;;0.20;0.20;;;11.80;99.90;;;;;;5039706;28;20055;-72
2022/09/18 07:52:56;;;;;;;0.10;0.10;;;11.80;99.90;;;;;;5050548;28;20396;-71
2022/09/18 07:55:24;;;;;;;0.10;0.10;;;11.80;99.90;;;;;;5050301;28;20082;-72
2022/09/18 07:57:54;;;;;;;0.00;0.00;;;11.80;99.90;;;;;;5050294;28;20052;-72
2022/09/18 08:00:20;;;;;;;0.10;0.10;;;11.80;99.90;;;;;;5032074;28;20106;-72
2022/09/18 08:02:45;;;;;;;0.10;0.10;;;11.90;99.90;;;;;;5049085;28;20057;-71
2022/09/18 08:05:11;;;;;;;0.10;0.10;;;11.90;99.90;;;;;;5047932;28;20055;-72
2022/09/18 08:07:36;;;;;;;0.10;0.10;;;11.90;99.90;;;;;;5032331;28;20464;-72
2022/09/18 08:10:04;;;;;;;0.00;0.00;;;12.00;99.90;;;;;;5050321;28;20044;-71
2022/09/18 08:12:30;;;;;;;0.10;0.10;;;12.00;99.90;;;;;;5050255;28;20048;-71
2022/09/18 08:14:56;;;;;;;0.00;0.00;;;12.10;99.90;;;;;;5050866;28;20102;-71
2022/09/18 08:17:22;;;;;;;1.88;0.52;;;12.10;99.90;;;;;;5031613;28;20033;-71
2022/09/18 08:19:48;;;;;;;0.10;0.10;;;12.10;99.90;;;;;;5028630;28;20072;-71
2022/09/18 08:22:13;;;;;;;0.10;0.10;;;12.00;99.90;;;;;;5022975;28;20045;-71
2022/09/18 08:24:39;;;;;;;0.03;0.03;;;12.00;99.90;;;;;;5029815;28;20520;-71
2022/09/18 08:27:04;;;;;;;0.10;0.10;;;12.00;99.90;;;;;;5029450;28;20053;-71
2022/09/18 08:29:30;;;;;;;0.00;0.00;;;11.90;99.90;;;;;;5028727;28;20096;-71
2022/09/18 08:31:55;;;;;;;0.10;0.10;;;11.90;99.90;;;;;;5030101;28;20037;-71
2022/09/18 08:34:21;;;;;;;0.10;0.10;;;11.90;99.90;;;;;;5028061;28;20050;-71
2022/09/18 08:36:47;;;;;;;0.10;0.10;;;11.90;99.90;;;;;;5030680;28;20041;-71
2022/09/18 08:39:13;;;;;;;0.10;0.10;;;11.90;99.90;;;;;;5034209;28;20564;-72
2022/09/18 08:41:50;;;;;;;0.10;0.10;;;12.00;99.90;;;;;;5031317;28;20056;-72
2022/09/18 08:44:27;;;;;;;0.10;0.10;;;12.00;99.90;;;;;;5021368;28;20057;-72
2022/09/18 08:47:02;;;;;;;0.05;0.05;;;12.00;99.90;;;;;;5020211;28;20080;-71
2022/09/18 08:49:35;;;;;;;0.00;0.00;;;12.10;99.90;;;;;;5030015;28;20577;-72
2022/09/18 08:52:15;;;;;;;0.10;0.10;;;12.10;99.90;;;;;;5029184;28;20396;-72
2022/09/18 08:54:59;;;;;;;0.10;0.10;;;12.10;99.90;;;;;;5042528;28;20049;-72
2022/09/18 08:57:36;;;;;;;0.10;0.10;;;12.10;99.90;;;;;;5050056;28;20094;-72
2022/09/18 09:00:25;;;;;;;0.10;0.10;;;12.00;99.90;;;;;;5046338;28;20060;-72
2022/09/18 09:02:52;;;;;;;0.10;0.10;;;12.10;99.90;;;;;;5024291;28;20050;-71
2022/09/18 09:05:27;;;;;;;0.00;0.00;;;12.10;99.90;;;;;;5029771;28;20088;-72
2022/09/18 09:08:29;;;;;;;0.10;0.10;;;12.10;99.90;;;;;;5029483;28;20064;-72
2022/09/18 09:11:22;;;;;;;0.10;0.10;;;12.10;99.90;;;;;;5023819;28;20045;-71
2022/09/18 09:14:24;;;;;;;0.00;0.00;;;12.10;99.90;;;;;;5045781;28;20041;-72
2022/09/18 09:16:54;;;;;;;0.10;0.10;;;12.10;99.90;;;;;;5028272;28;20802;-72
2022/09/18 09:19:40;;;;;;;0.10;0.10;;;12.10;99.90;;;;;;5029947;28;20088;-72
2022/09/18 09:22:17;;;;;;;0.10;0.10;;;12.10;99.90;;;;;;5028238;28;20045;-72
2022/09/18 09:25:08;;;;;;;0.10;0.10;;;12.10;99.90;;;;;;5028249;28;20045;-71
2022/09/18 09:27:51;;;;;;;0.10;0.10;;;12.10;99.90;;;;;;5030358;28;20110;-71
2022/09/18 09:30:19;;;;;;;0.05;0.05;;;12.00;99.90;;;;;;5041664;28;20439;-71
2022/09/18 09:33:01;;;;;;;0.10;0.10;;;12.00;99.90;;;;;;5038511;28;20049;-71
2022/09/18 09:35:40;;;;;;;0.10;0.10;;;12.00;99.90;;;;;;5027861;28;20389;-71
2022/09/18 09:38:22;;;;;;;0.10;0.10;;;12.10;99.90;;;;;;5031224;28;20049;-71
2022/09/18 09:40:52;;;;;;;0.05;0.05;;;12.10;99.90;;;;;;5033105;28;20045;-71
2022/09/18 09:43:30;;;;;;;0.00;0.00;;;12.10;99.90;;;;;;5031923;28;20057;-71
2022/09/18 09:46:01;;;;;;;0.10;0.10;;;12.10;99.90;;;;;;5031174;28;23461;-71
2022/09/18 09:48:49;;;;;;;0.10;0.10;;;12.10;99.90;;;;;;5033029;28;20393;-71
2022/09/18 09:51:42;;;;;;;0.10;0.10;;;12.10;99.90;;;;;;5030838;28;20080;-71
2022/09/18 09:54:11;;;;;;;1.98;0.68;;;12.10;99.90;;;;;;5032651;28;20045;-72
2022/09/18 09:56:58;;;;;;;0.10;0.10;;;12.10;99.90;;;;;;5030664;28;20038;-72
2022/09/18 09:59:39;;;;;;;0.00;0.00;;;12.20;99.90;;;;;;5032635;28;20401;-71
2022/09/18 10:02:24;;;;;;;0.20;0.20;;;12.10;99.90;;;;;;5032154;28;20596;-71
2022/09/18 10:05:10;;;;;;;5.47;1.95;;;12.20;99.90;;;;;;5039104;28;20041;-71
2022/09/18 10:07:45;;;;;;;0.10;0.10;;;12.20;99.90;;;;;;5052963;28;20510;-72
2022/09/18 10:10:21;;;;;;;0.10;0.10;;;12.30;99.90;;;;;;5051994;28;20063;-72
2022/09/18 10:12:54;;;;;;;0.10;0.10;;;12.40;99.90;;;;;;5049591;28;20037;-71
2022/09/18 10:15:33;;;;;;;0.10;0.10;;;12.40;99.90;;;;;;5052243;28;20049;-71
2022/09/18 10:18:03;;;;;;;0.10;0.10;;;12.40;99.90;;;;;;5052091;28;20092;-72
2022/09/18 10:20:30;;;;;;;0.13;0.13;;;12.40;99.90;;;;;;5040255;28;20548;-72
2022/09/18 10:23:10;;;;;;;1.25;0.63;;;12.40;99.90;;;;;;5032410;28;20138;-72
2022/09/18 10:25:48;;;;;;;0.10;0.10;;;12.50;99.90;;;;;;5030366;28;20513;-71
2022/09/18 10:28:14;;;;;;;0.00;0.00;;;12.60;99.90;;;;;;5032236;28;20047;-71
2022/09/18 10:31:04;;;;;;;0.10;0.10;;;12.70;99.90;;;;;;5050960;28;20045;-72
2022/09/18 10:33:39;;;;;;;0.10;0.10;;;12.70;99.90;;;;;;5032972;28;20072;-72
2022/09/18 10:36:18;;;;;;;0.10;0.10;;;12.70;99.90;;;;;;5041098;28;20094;-72
2022/09/18 10:38:44;;;;;;;0.30;0.30;;;12.80;99.90;;;;;;5051471;28;20055;-72
2022/09/18 10:41:17;;;;;;;0.10;0.10;;;12.80;99.90;;;;;;5035455;28;20068;-72
2022/09/18 10:44:02;;;;;;;0.10;0.10;;;12.80;99.90;;;;;;5049910;28;20098;-71
2022/09/18 10:46:32;;;;;;;0.00;0.00;;;12.80;99.90;;;;;;5051090;28;20544;-72
2022/09/18 10:49:16;;;;;;;0.10;0.10;;;12.90;99.90;;;;;;5045163;28;20488;-72
2022/09/18 10:51:42;;;;;;;0.10;0.10;;;12.90;99.90;;;;;;5051994;28;20099;-73
2022/09/18 10:54:15;;;;;;;0.10;0.10;;;12.90;99.90;;;;;;5040080;28;20038;-72
2022/09/18 10:56:41;;;;;;;;;;;13.00;99.90;;;;;;5027189;28;20037;-73
2022/09/18 10:59:31;;;;;;;0.10;0.10;;;13.00;99.90;;;;;;5031391;28;20046;-73
2022/09/18 11:01:58;;;;;;;0.20;0.20;;;13.00;99.90;;;;;;5030815;28;20108;-73
2022/09/18 11:04:26;;;;;;;0.10;0.10;;;13.10;99.90;;;;;;5030136;28;20467;-73
2022/09/18 11:06:52;;;;;;;0.08;0.08;;;13.10;99.90;;;;;;5037417;28;20537;-73
2022/09/18 11:09:24;;;;;;;0.20;0.20;;;13.10;99.90;;;;;;5048654;28;20396;-73
2022/09/18 11:11:50;;;;;;;0.10;0.10;;;13.20;99.90;;;;;;5051449;28;20037;-73
2022/09/18 11:14:24;;;;;;;0.10;0.10;;;13.20;99.90;;;;;;5046941;28;20079;-73
2022/09/18 11:16:54;;;;;;;0.10;0.10;;;13.30;99.90;;;;;;5051217;28;20037;-73
2022/09/18 11:19:33;;;;;;;0.10;0.10;;;13.30;99.90;;;;;;5033098;28;20040;-73
2022/09/18 11:22:04;;;;;;;0.00;0.00;;;13.30;99.90;;;;;;5050173;28;20481;-73
2022/09/18 11:24:33;;;;;;;0.10;0.10;;;13.40;99.90;;;;;;5045789;28;20665;-73
2022/09/18 11:27:23;;;;;;;0.00;0.00;;;13.40;99.90;;;;;;5030575;28;20450;-73
2022/09/18 11:29:48;;;;;;;0.57;0.57;;;13.40;99.90;;;;;;5030836;28;20710;-73
2022/09/18 11:32:28;;;;;;;0.10;0.10;;;13.40;99.90;;;;;;5030599;28;20045;-73
2022/09/18 11:34:57;;;;;;;0.00;0.00;;;13.50;99.90;;;;;;5029476;28;20092;-73
2022/09/18 11:37:38;;;;;;;0.00;0.00;;;13.40;99.90;;;;;;5018841;28;20128;-73
2022/09/18 11:40:14;;;;;;;0.10;0.10;;;13.40;99.90;;;;;;5030890;28;20057;-72
2022/09/18 11:42:44;;;;;;;0.10;0.10;;;13.20;99.90;;;;;;5030409;28;20045;-72
2022/09/18 11:45:33;;;;;;;0.10;0.10;;;13.00;99.90;;;;;;5027642;28;20567;-72
2022/09/18 11:48:33;;;;;;;0.00;0.00;;;12.80;99.90;;;;;;5028536;28;20053;-71
2022/09/18 11:51:03;;;;;;;1.02;0.57;;;12.70;99.90;;;;;;5027618;28;20060;-71
2022/09/18 11:53:34;;;;;;;0.20;0.20;;;12.70;99.90;;;;;;5031156;28;20045;-71
2022/09/18 11:56:16;;;;;;;0.32;0.32;;;12.60;99.90;;;;;;5048411;28;20075;-71
2022/09/18 11:58:54;;;;;;;0.10;0.10;;;12.70;99.90;;;;;;5047358;28;20053;-72
2022/09/18 12:01:35;;;;;;;0.00;0.00;;;12.70;99.90;;;;;;5050089;28;20124;-71
2022/09/18 12:04:20;;;;;;;0.00;0.00;;;12.70;99.90;;;;;;5045430;28;20045;-72
2022/09/18 12:06:54;;;;;;;0.00;0.00;;;12.80;99.90;;;;;;5050977;28;20044;-71
2022/09/18 12:10:03;;;;;;;0.03;0.03;;;12.90;99.90;;;;;;5031766;28;20096;-72
2022/09/18 12:12:36;;;;;;;0.00;0.00;;;12.90;99.90;;;;;;5050164;28;20134;-72
2022/09/18 12:15:04;;;;;;;0.10;0.10;;;12.90;99.90;;;;;;5050416;28;20056;-72
2022/09/18 12:17:45;;;;;;;0.00;0.00;;;13.00;99.90;;;;;;5038536;28;20131;-72
2022/09/18 12:20:22;;;;;;;0.13;0.13;;;13.00;99.90;;;;;;5048780;28;20194;-72
2022/09/18 12:22:56;;;;;;;0.00;0.00;;;13.00;99.90;;;;;;5049080;28;20049;-72
2022/09/18 12:25:36;;;;;;;0.00;0.00;;;13.10;99.90;;;;;;5039305;28;20128;-72
2022/09/18 12:28:37;;;;;;;0.10;0.10;;;13.10;99.90;;;;;;5027254;28;20049;-72
2022/09/18 12:31:06;;;;;;;0.20;0.20;;;13.20;99.90;;;;;;5039764;28;20057;-72
2022/09/18 12:33:44;;;;;;;0.10;0.10;;;13.20;99.90;;;;;;5030622;28;20111;-72
2022/09/18 12:36:29;;;;;;;27.42;1.10;;;13.20;99.90;;;;;;5034645;28;20053;-72
2022/09/18 12:39:02;;;;;;;0.10;0.10;;;13.20;99.90;;;;;;5049896;28;20044;-72
2022/09/18 12:41:46;;;;;;;0.10;0.10;;;13.20;99.90;;;;;;5032841;28;20088;-71
2022/09/18 12:44:33;;;;;;;0.57;0.57;;;13.10;99.90;;;;;;5037601;28;20036;-72
2022/09/18 12:47:19;;;;;;;0.10;0.10;;;12.90;99.90;;;;;;5049316;28;20150;-71
2022/09/18 12:50:12;;;;;;;0.10;0.10;;;12.90;99.90;;;;;;5018696;28;20057;-71
2022/09/18 12:53:10;;;;;;;0.00;0.00;;;12.80;99.90;;;;;;5039616;28;20052;-71
2022/09/18 12:56:07;;;;;;;0.00;0.00;;;12.80;99.90;;;;;;5050346;28;20048;-72
2022/09/18 12:58:42;;;;;;;0.00;0.00;;;12.70;99.90;;;;;;5039666;28;20523;-71
2022/09/18 13:01:32;;;;;;;0.00;0.00;;;12.80;99.90;;;;;;5048480;28;20454;-71
2022/09/18 13:04:24;;;;;;;0.00;0.00;;;12.80;99.90;;;;;;5029272;28;20038;-72
2022/09/18 13:07:09;;;;;;;0.10;0.10;;;12.80;99.90;;;;;;5032218;28;20077;-72
2022/09/18 13:09:56;;;;;;;16.45;0.50;;;12.80;99.90;;;;;;5027039;28;20072;-71
2022/09/18 13:12:48;;;;;;;0.10;0.10;;;12.70;99.90;;;;;;5031974;28;20050;-71